• Join FlightAware (Why Join?)
  • Login
  • US Flag 
 
09:23PM EST


 

Airport Tracker/Info


-or-


 

Live Flight TrackerFlight Track Log ✈ HDA835 ✈ 31-Aug-2014 ✈ ZSPD / PVG - VHHH / HKG

Flight Track Log - Related Links

Times and Time Zones

All times are in EDT time to prevent confusion due to time zone crossing. See the HDA835 flight status page for this flight to view local times or setup timezone preferences in your user account.

Time Position Orientation Groundspeed Altitude Reporting Facility
EDT Latitude Longitude Course Direction KTS MPH feet Rate Location/Type
08:23AM 31.1256 121.8242 162° South 144 166 1,400  Level FlightAware ADS-B (ZSSL)
08:23AM 31.1159 121.8282 155° Southeast 145 167 2,000 1,800 Climbing FlightAware ADS-B (ZSSL)
08:23AM 31.1085 121.8378 112° Southeast 166 191 2,300 1,020 Climbing FlightAware ADS-B (ZSSL)
08:24AM 31.1035 121.8572 107° East 198 228 2,600 720 Climbing FlightAware ADS-B (ZSSL)
08:24AM 31.0973 121.8795 107° East 237 273 2,800 1,020 Climbing FlightAware ADS-B (ZSSL)
08:24AM 31.0922 121.8980 108° East 259 298 3,200 1,980 Climbing FlightAware ADS-B (ZSSL)
08:25AM 31.0863 121.9192 107° East 273 314 3,800 3,000 Climbing FlightAware ADS-B (ZSSL)
08:25AM 31.0806 121.9405 107° East 276 318 4,700 3,780 Climbing FlightAware ADS-B (ZSSL)
08:25AM 31.0751 121.9613 107° East 269 310 5,700 3,360 Climbing FlightAware ADS-B (ZSSL)
08:25AM 31.0703 121.9799 106° East 278 320 6,400 2,400 Climbing FlightAware ADS-B (ZSSL)
08:26AM 31.0624 122.0107 106° East 287 330 7,200 2,520 Climbing FlightAware ADS-B (ZSSS / SHA)
08:26AM 31.0522 122.0504 106° East 302 348 8,300 2,640 Climbing FlightAware ADS-B (ZSSL)
08:26AM 31.0460 122.0744 106° East 310 357 8,900 2,160 Climbing FlightAware ADS-B (ZSSL)
08:27AM 31.0394 122.0996 106° East 322 371 9,400 2,340 Climbing FlightAware ADS-B (ZSSL)
08:27AM 31.0273 122.1457 107° East 334 384 10,600 1,680 Climbing FlightAware ADS-B (ZSSL)
08:28AM 31.0113 122.2051 109° East 372 428 11,100 1,020 Climbing FlightAware ADS-B (ZSSL)
08:28AM 30.9936 122.2387 131° Southeast 383 441 11,500 1,740 Climbing FlightAware ADS-B (ZSSL)
08:28AM 30.9531 122.2672 160° South 378 435 12,500 2,400 Climbing FlightAware ADS-B (ZSSL)
08:29AM 30.8884 122.2907 162° South 381 438 14,300 2,280 Climbing FlightAware ADS-B (ZSSL)
08:30AM 30.8289 122.3127 162° South 390 449 15,300 2,040 Climbing FlightAware ADS-B (ZSSL)
08:30AM 30.8019 122.3228 162° South 395 455 16,000 1,980 Climbing FlightAware ADS-B (ZSSL)
08:30AM 30.7456 122.3438 162° South 401 461 16,900 1,320 Climbing FlightAware ADS-B (ZSSL)
08:31AM 30.6847 122.3661 162° South 401 461 17,400 960 Climbing FlightAware ADS-B (ZSSL)
08:31AM 30.6476 122.3797 162° South 435 501 17,700 1,740 Climbing FlightAware ADS-B (ZBAA / PEK)
08:32AM 30.6014 122.3965 164° South 423 487 18,700 2,280 Climbing FlightAware ADS-B (ZSSL)
08:32AM 30.5634 122.4010 183° South 405 466 19,600 1,920 Climbing FlightAware ADS-B (ZSSL)
08:32AM 30.5076 122.3974 184° South 411 473 20,300 1,380 Climbing FlightAware ADS-B (ZSSL)
08:33AM 30.4513 122.3936 184° South 418 481 21,000 1,380 Climbing FlightAware ADS-B (ZSSL)
08:34AM 30.3749 122.3893 184° South 418 481 21,900 2,400 Climbing FlightAware ADS-B (ZSSL)
08:34AM 30.2788 122.3838 183° South 382 440 24,600 2,460 Climbing FlightAware ADS-B (ZSSL)
08:35AM 30.2158 122.3801 183° South 383 441 25,500 1,440 Climbing FlightAware ADS-B (ZSSL)
08:36AM 30.1624 122.3768 183° South 388 447 26,200 1,800 Climbing FlightAware ADS-B (ZSSL)
08:36AM 30.1255 122.3746 183° South 386 444 26,900 1,560 Climbing FlightAware ADS-B (ZBAA / PEK)
08:37AM 30.0559 122.3705 183° South 384 442 27,800 1,260 Climbing FlightAware ADS-B (ZSSL)
08:37AM 30.0032 122.3639 198° South 374 430 28,500 960 Climbing FlightAware ADS-B (ZSSL)
08:38AM 29.9224 122.3086 210° Southwest 382 440 29,100 720 Climbing FlightAware ADS-B (ZBAA / PEK)
08:38AM 29.8867 122.2971 187° South 401 461 29,400 1,020 Climbing FlightAware ADS-B (ZBAA / PEK)
08:39AM 29.8545 122.2968 174° South 409 471 29,800 1,320 Climbing FlightAware ADS-B (ZBAA / PEK)
08:39AM 29.8120 122.3087 159° South 416 479 30,300 1,620 Climbing FlightAware ADS-B (ZBAA / PEK)
08:40AM 29.7428 122.3435 159° South 407 468 31,400 1,200 Climbing FlightAware ADS-B (ZBAA / PEK)
08:40AM 29.6711 122.3664 168° South 407 468 31,900 420 Climbing FlightAware ADS-B (ZBAA / PEK)
08:41AM 29.6038 122.3817 169° South 422 486 32,000 120 Climbing FlightAware ADS-B (ZSSL)
08:41AM 29.5446 122.3949 169° South 430 495 32,100 300 Climbing FlightAware ADS-B (ZSSL)
08:42AM 29.4404 122.4191 169° South 449 517 32,400 780 Climbing FlightAware ADS-B (ZBAA / PEK)
08:43AM 29.3625 122.4363 172° South 443 510 33,200 1,020 Climbing FlightAware ADS-B (ZBAA / PEK)
08:43AM 29.2938 122.4425 202° Southwest 370 426 33,700 780 Climbing FlightAware ADS-B (ZSSL)
08:44AM 29.2341 122.4395 185° South 436 502 34,100 720 Climbing FlightAware ADS-B (ZBAA / PEK)
08:45AM 29.1607 122.4255 194° South 438 504 34,500 900 Climbing FlightAware ADS-B (ZBAA / PEK)
08:45AM 29.0809 122.3962 202° Southwest 424 488 35,300 780 Climbing FlightAware ADS-B (ZBAA / PEK)
08:46AM 29.0362 122.3755 191° South 434 499 35,600 540 Climbing FlightAware ADS-B (ZBAA / PEK)
08:47AM 28.9260 122.3489 194° South 431 496 36,100 360 Climbing FlightAware ADS-B (ZBAA / PEK)
08:47AM 28.8521 122.3240 198° South 434 499 36,100  Level FlightAware ADS-B (ZSSL)
08:48AM 28.7786 122.2931 205° Southwest 432 497 36,100 -180 Level FlightAware ADS-B (ZBAA / PEK)
08:50AM 28.6822 122.1558 231° Southwest  Level Estimated
08:51AM 28.6242 122.0736 231° Southwest  Level Estimated
08:52AM 28.5662 121.9914 231° Southwest  Level Estimated
08:53AM 28.5082 121.9094 231° Southwest  Level Estimated
08:54AM 28.4501 121.8274 231° Southwest  Level Estimated
08:55AM 28.3919 121.7456 231° Southwest  Level Estimated
08:56AM 28.3337 121.6638 231° Southwest  Level Estimated
08:57AM 28.2755 121.5821 231° Southwest  Level Estimated
08:58AM 28.2172 121.5005 231° Southwest  Level Estimated
08:59AM 28.1588 121.4190 231° Southwest  Level Estimated
09:00AM 28.1004 121.3375 231° Southwest  Level Estimated
09:01AM 28.0420 121.2562 231° Southwest  Level Estimated
09:02AM 27.9835 121.1749 231° Southwest  Level Estimated
09:03AM 27.9250 121.0938 231° Southwest  Level Estimated
09:04AM 27.8664 121.0127 231° Southwest  Level Estimated
09:05AM 27.8078 120.9317 231° Southwest  Level Estimated
09:06AM 27.7491 120.8508 231° Southwest  Level Estimated
09:07AM 27.6904 120.7700 231° Southwest  Level Estimated
09:08AM 27.6316 120.6893 231° Southwest  Level Estimated
09:09AM 27.5728 120.6087 231° Southwest  Level Estimated
09:10AM 27.5139 120.5281 231° Southwest  Level Estimated
09:11AM 27.4550 120.4476 230° Southwest  Level Estimated
09:12AM 27.3960 120.3672 230° Southwest  Level Estimated
09:13AM 27.3370 120.2870 230° Southwest  Level Estimated
09:14AM 27.2780 120.2067 230° Southwest  Level Estimated
09:15AM 27.2189 120.1266 230° Southwest  Level Estimated
09:16AM 27.1597 120.0466 230° Southwest  Level Estimated
09:17AM 27.1006 119.9666 230° Southwest  Level Estimated
09:18AM 27.0413 119.8868 230° Southwest  Level Estimated
09:19AM 26.9821 119.8070 230° Southwest  Level Estimated
09:20AM 26.9227 119.7273 230° Southwest  Level Estimated
09:21AM 26.8634 119.6477 230° Southwest  Level Estimated
09:22AM 26.8040 119.5681 230° Southwest  Level Estimated
09:23AM 26.7445 119.4887 230° Southwest  Level Estimated
09:24AM 26.6850 119.4093 230° Southwest  Level Estimated
09:25AM 26.6255 119.3300 230° Southwest  Level Estimated
09:26AM 26.5659 119.2508 230° Southwest  Level Estimated
09:27AM 26.5063 119.1717 230° Southwest  Level Estimated
09:28AM 26.4466 119.0927 230° Southwest  Level Estimated
09:29AM 26.3869 119.0137 230° Southwest  Level Estimated
09:30AM 26.3271 118.9349 230° Southwest  Level Estimated
09:31AM 26.2673 118.8561 230° Southwest  Level Estimated
09:32AM 26.2075 118.7774 230° Southwest  Level Estimated
09:33AM 26.1476 118.6987 230° Southwest  Level Estimated
09:34AM 26.0876 118.6202 230° Southwest  Level Estimated
09:35AM 26.0277 118.5417 230° Southwest  Level Estimated
09:36AM 25.9676 118.4633 230° Southwest  Level Estimated
09:37AM 25.9076 118.3850 230° Southwest  Level Estimated
09:38AM 25.8475 118.3068 230° Southwest  Level Estimated
09:39AM 25.7873 118.2286 229° Southwest  Level Estimated
09:40AM 25.7272 118.1506 229° Southwest  Level Estimated
09:41AM 25.6669 118.0726 229° Southwest  Level Estimated
09:42AM 25.6067 117.9947 229° Southwest  Level Estimated
09:43AM 25.5464 117.9168 229° Southwest  Level Estimated
09:44AM 25.4860 117.8391 229° Southwest  Level Estimated
09:45AM 25.4256 117.7614 229° Southwest  Level Estimated
09:46AM 25.3652 117.6838 229° Southwest  Level Estimated
09:47AM 25.3047 117.6063 229° Southwest  Level Estimated
09:48AM 25.2442 117.5288 229° Southwest  Level Estimated
09:49AM 25.1836 117.4515 229° Southwest  Level Estimated
09:50AM 25.1231 117.3742 229° Southwest  Level Estimated
09:51AM 25.0624 117.2970 229° Southwest  Level Estimated
09:52AM 25.0018 117.2198 229° Southwest  Level Estimated
09:53AM 24.9410 117.1428 229° Southwest  Level Estimated
09:54AM 24.8803 117.0658 229° Southwest  Level Estimated
09:55AM 24.8195 116.9889 229° Southwest  Level Estimated
09:56AM 24.7587 116.9120 229° Southwest  Level Estimated
09:57AM 24.6978 116.8353 229° Southwest  Level Estimated
09:58AM 24.6369 116.7586 229° Southwest  Level Estimated
09:58AM 22.3036 115.6613 258° West 418 481 24,800  Level FlightAware ADS-B
10:11AM 22.2528 114.4293 268° West 295 339 11,800 -1,020 Descending FlightAware ADS-B
10:11AM 22.2504 114.3663 268° West 296 341 11,400 -600 Descending FlightAware ADS-B
10:12AM 22.2483 114.3063 268° West 292 336 11,000 -420 Descending FlightAware ADS-B
10:12AM 22.2431 114.2798 248° West 274 315 11,000  Level FlightAware ADS-B
10:13AM 22.2228 114.2268 248° West 249 287 11,000  Level FlightAware ADS-B
10:14AM 22.2062 114.1830 248° West 251 289 11,000 -780 Level FlightAware ADS-B
10:14AM 22.1900 114.1400 248° West 270 311 10,000 -1,620 Descending FlightAware ADS-B
10:15AM 22.1777 114.1074 248° West 276 318 9,400 -1,320 Descending FlightAware ADS-B
10:15AM 22.1684 114.0827 248° West 273 314 9,100 -1,200 Descending FlightAware ADS-B
10:15AM 22.1583 114.0561 248° West 272 313 8,600 -1,200 Descending FlightAware ADS-B
10:16AM 22.1477 114.0340 235° Southwest 263 303 8,300 -780 Descending FlightAware ADS-B
10:16AM 22.1397 114.0225 232° Southwest 251 289 8,100 -780 Descending FlightAware ADS-B
10:16AM 22.1325 113.9866 232° Southwest 243 280 7,800 -1,080 Descending FlightAware ADS-B
10:17AM 22.1189 113.9682 232° Southwest 243 280 7,400 -1,260 Descending FlightAware ADS-B
10:17AM 22.1038 113.9474 234° Southwest 242 278 7,000 -1,440 Descending FlightAware ADS-B
10:17AM 22.0853 113.9374 270° West 253 291 6,500 -1,380 Descending FlightAware ADS-B
10:18AM 22.0902 113.9082 288° West 255 293 6,100 -1,080 Descending FlightAware ADS-B
10:18AM 22.0977 113.8850 289° West 253 291 5,800 -1,080 Descending FlightAware ADS-B
10:18AM 22.1057 113.8605 289° West 253 291 5,400 -1,200 Descending FlightAware ADS-B
10:19AM 22.1142 113.8365 299° West 253 291 5,000 -1,200 Descending FlightAware ADS-B
10:19AM 22.1304 113.8172 317° Northwest 251 289 4,600 -1,140 Descending FlightAware ADS-B
10:19AM 22.1440 113.8038 318° Northwest 246 283 4,300 -660 Descending FlightAware ADS-B
10:20AM 22.1586 113.7894 318° Northwest 233 268 4,200 -720 Descending FlightAware ADS-B
10:21AM 22.2453 113.7414 22° Northeast 178 205 2,900 -840 Descending FlightAware ADS-B
10:21AM 22.2567 113.7477 33° Northeast 174 200 2,700 -780 Descending FlightAware ADS-B
10:24AM 22.3089 113.9146 71° East  Level Estimated
10:25AM 22.3089 113.9146 North  Level Estimated
10:26AM 22.3089 113.9146 North  Level Estimated
10:27AM 22.3089 113.9146 North  Level Estimated
10:28AM 22.3089 113.9146 North  Level Estimated
10:29AM 22.3089 113.9146 North  Level Estimated
10:30AM 22.3089 113.9146 North  Level Estimated
10:31AM 22.3089 113.9146 North  Level Estimated
10:32AM 22.3089 113.9146 North  Level Estimated
10:33AM 22.3089 113.9146 North  Level Estimated
10:34AM 22.3089 113.9146 North  Level Estimated
10:35AM 22.3089 113.9146 North  Level Estimated
10:36AM 22.3089 113.9146 North  Level Estimated
10:37AM 22.3089 113.9146 North  Level Estimated
10:38AM 22.3089 113.9146 North  Level Estimated
10:39AM 22.3089 113.9146 North  Level Estimated
10:40AM 22.3089 113.9146 North  Level Estimated
10:41AM 22.3089 113.9146 North  Level Estimated